createdAt,value
2018-08-03T00:01:22.461Z,48.69
2018-08-03T00:03:53.075Z,48.62
2018-08-03T00:06:23.753Z,49.37
2018-08-03T00:08:54.434Z,49.20
2018-08-03T00:11:25.128Z,49.60
2018-08-03T00:13:55.801Z,49.39
2018-08-03T00:16:26.507Z,49.65
2018-08-03T00:18:57.190Z,49.91
2018-08-03T00:21:28.034Z,50.28
2018-08-03T00:23:58.812Z,50.39
2018-08-03T00:26:29.503Z,50.49
2018-08-03T00:29:00.257Z,50.51
2018-08-03T00:31:30.918Z,50.86
2018-08-03T00:34:01.637Z,51.10
2018-08-03T00:36:32.327Z,51.16
2018-08-03T00:39:03.045Z,51.33
2018-08-03T00:41:33.724Z,51.22
2018-08-03T00:44:04.480Z,51.75
2018-08-03T00:46:35.153Z,51.57
2018-08-03T00:49:05.842Z,52.07
2018-08-03T00:51:36.567Z,51.89
2018-08-03T00:54:07.326Z,52.12
2018-08-03T00:56:37.962Z,52.73
2018-08-03T00:59:08.300Z,52.38
2018-08-03T01:01:38.918Z,52.82
2018-08-03T01:04:09.639Z,53.07
2018-08-03T01:06:40.340Z,53.11
2018-08-03T01:09:12.679Z,53.24
2018-08-03T01:11:43.328Z,53.03
2018-08-03T01:14:14.029Z,52.89
2018-08-03T01:16:44.668Z,53.58
2018-08-03T01:19:15.851Z,53.90
2018-08-03T01:21:46.551Z,53.86
2018-08-03T01:24:17.239Z,53.67
2018-08-03T01:26:47.863Z,53.95
2018-08-03T01:29:18.534Z,53.85
2018-08-03T01:31:49.191Z,53.59
2018-08-03T01:34:19.930Z,53.61
2018-08-03T01:36:50.615Z,54.48
2018-08-03T01:39:21.239Z,53.45
2018-08-03T01:41:51.897Z,53.49
2018-08-03T01:44:22.548Z,53.23
2018-08-03T01:46:53.227Z,53.40
2018-08-03T01:49:23.852Z,53.64
2018-08-03T01:51:54.531Z,53.42
2018-08-03T01:54:25.190Z,53.42
2018-08-03T01:56:55.874Z,53.76
2018-08-03T01:59:26.564Z,53.65
2018-08-03T02:01:57.212Z,53.86
2018-08-03T02:04:27.843Z,54.09
2018-08-03T02:06:58.554Z,54.00
2018-08-03T02:09:29.211Z,54.24
2018-08-03T02:11:59.876Z,54.72
2018-08-03T02:14:30.595Z,54.39
2018-08-03T02:17:01.512Z,53.93
2018-08-03T02:19:32.164Z,54.36
2018-08-03T02:22:02.796Z,54.37
2018-08-03T02:24:33.445Z,54.45
2018-08-03T02:27:04.101Z,54.53
2018-08-03T02:29:34.786Z,54.98
2018-08-03T02:32:05.439Z,54.62
2018-08-03T02:34:36.144Z,54.45
2018-08-03T02:37:06.808Z,54.23
2018-08-03T02:39:37.452Z,54.64
2018-08-03T02:42:08.242Z,54.32
2018-08-03T02:44:38.889Z,54.28
2018-08-03T02:47:09.521Z,54.52
2018-08-03T02:49:40.223Z,54.35
2018-08-03T02:52:11.391Z,54.58
2018-08-03T02:54:42.040Z,54.31
2018-08-03T02:57:12.698Z,54.41
2018-08-03T02:59:43.360Z,54.62
2018-08-03T03:02:14.040Z,54.51
2018-08-03T03:04:44.713Z,54.74
2018-08-03T03:07:15.414Z,54.73
2018-08-03T03:09:46.104Z,54.71
2018-08-03T03:12:16.732Z,55.04
2018-08-03T03:14:47.404Z,55.08
2018-08-03T03:17:32.482Z,55.61
2018-08-03T03:20:03.256Z,55.43
2018-08-03T03:22:33.906Z,55.50
2018-08-03T03:25:04.655Z,55.74
2018-08-03T03:27:35.327Z,55.72
2018-08-03T03:30:07.715Z,55.80
2018-08-03T03:32:38.458Z,55.85
2018-08-03T03:35:09.204Z,56.06
2018-08-03T03:37:39.824Z,56.45
2018-08-03T03:40:10.489Z,56.53
2018-08-03T03:42:41.102Z,56.29
2018-08-03T03:45:11.759Z,57.12
2018-08-03T03:47:42.398Z,56.80
2018-08-03T03:50:13.062Z,57.10
2018-08-03T03:52:43.715Z,57.50
2018-08-03T03:55:14.452Z,57.34
2018-08-03T03:57:45.129Z,57.46
2018-08-03T04:00:15.800Z,57.85
2018-08-03T04:02:46.495Z,58.01
2018-08-03T04:05:17.192Z,58.05
2018-08-03T04:07:47.904Z,58.48
2018-08-03T04:10:18.532Z,58.47
2018-08-03T04:12:49.208Z,58.37
2018-08-03T04:15:19.887Z,58.79
2018-08-03T04:17:50.576Z,58.43
2018-08-03T04:20:21.246Z,58.53
2018-08-03T04:22:51.944Z,58.35
2018-08-03T04:25:22.652Z,58.14
2018-08-03T04:27:53.326Z,58.05
2018-08-03T04:30:23.995Z,58.12
2018-08-03T04:32:54.603Z,58.09
2018-08-03T04:35:25.241Z,58.53
2018-08-03T04:37:55.915Z,58.50
2018-08-03T04:40:26.557Z,58.23
2018-08-03T04:42:57.218Z,58.59
2018-08-03T04:45:27.820Z,58.01
2018-08-03T04:47:58.492Z,58.53
2018-08-03T04:50:29.342Z,58.38
2018-08-03T04:53:00.019Z,58.65
2018-08-03T04:55:30.666Z,58.13
2018-08-03T04:58:01.387Z,58.71
2018-08-03T05:00:32.114Z,58.42
2018-08-03T05:03:02.870Z,58.18
2018-08-03T05:05:33.523Z,58.50
2018-08-03T05:08:04.281Z,58.34
2018-08-03T05:10:34.965Z,57.44
2018-08-03T05:13:05.680Z,57.76
2018-08-03T05:15:36.401Z,57.58
2018-08-03T05:18:07.115Z,57.58
2018-08-03T05:20:37.826Z,57.56
2018-08-03T05:23:08.448Z,57.58
2018-08-03T05:25:39.160Z,57.45
2018-08-03T05:28:09.854Z,57.07
2018-08-03T05:30:40.539Z,57.10
2018-08-03T05:33:11.484Z,56.52
2018-08-03T05:35:42.163Z,56.67
2018-08-03T05:40:42.226Z,55.43
2018-08-03T05:43:12.949Z,54.93
2018-08-03T05:45:43.560Z,54.30
2018-08-03T05:48:14.270Z,55.24
2018-08-03T05:50:44.944Z,55.03
2018-08-03T05:53:15.609Z,54.52
2018-08-03T05:55:46.256Z,54.75
2018-08-03T05:58:17.291Z,55.12
2018-08-03T06:00:48.035Z,54.36
2018-08-03T06:03:18.911Z,54.64
2018-08-03T06:05:49.597Z,54.52
2018-08-03T06:08:20.350Z,54.71
2018-08-03T06:10:51.004Z,54.11
2018-08-03T06:13:21.646Z,53.86
2018-08-03T06:15:52.312Z,53.62
2018-08-03T06:18:22.999Z,53.55
2018-08-03T06:20:53.671Z,53.05
2018-08-03T06:23:24.307Z,52.76
2018-08-03T06:25:55.020Z,53.23
2018-08-03T06:28:25.728Z,52.70
2018-08-03T06:30:56.409Z,52.10
2018-08-03T06:33:27.047Z,52.34
2018-08-03T06:35:57.879Z,52.06
2018-08-03T06:38:28.546Z,51.80
2018-08-03T06:40:59.232Z,51.76
2018-08-03T06:43:29.890Z,51.52
2018-08-03T06:46:00.554Z,51.26
2018-08-03T06:48:31.257Z,51.07
2018-08-03T06:51:01.906Z,50.48
2018-08-03T06:53:32.565Z,50.17
2018-08-03T06:56:03.378Z,49.72
2018-08-03T06:58:34.036Z,49.92
2018-08-03T07:01:04.810Z,48.90
2018-08-03T07:03:35.480Z,49.05
2018-08-03T07:06:06.199Z,48.71
2018-08-03T07:08:36.866Z,47.77
2018-08-03T07:11:07.867Z,47.31
2018-08-03T07:13:38.519Z,47.42
2018-08-03T07:16:09.190Z,46.63
2018-08-03T07:18:39.852Z,46.55
2018-08-03T07:21:11.310Z,45.89
2018-08-03T07:23:42.021Z,46.15
2018-08-03T07:26:12.775Z,45.46
2018-08-03T07:28:43.463Z,45.74
2018-08-03T07:31:14.089Z,45.53
2018-08-03T07:33:44.873Z,44.77
2018-08-03T07:36:15.607Z,44.80
2018-08-03T07:38:46.316Z,44.13
2018-08-03T07:41:17.018Z,44.41
2018-08-03T07:43:47.678Z,43.45
2018-08-03T07:46:18.317Z,43.31
2018-08-03T07:48:48.946Z,42.84
2018-08-03T07:51:19.613Z,42.40
2018-08-03T07:53:50.237Z,42.56
2018-08-03T07:56:20.891Z,42.05
2018-08-03T07:58:51.844Z,41.53
2018-08-03T08:01:22.515Z,40.79
2018-08-03T08:03:53.740Z,40.01
2018-08-03T08:06:24.422Z,38.86
2018-08-03T08:08:55.136Z,39.36
2018-08-03T08:11:25.840Z,39.45
2018-08-03T08:13:56.576Z,38.99
2018-08-03T08:16:27.287Z,36.79
2018-08-03T08:18:58.034Z,37.28
2018-08-03T08:21:28.940Z,37.01
2018-08-03T08:23:59.594Z,36.98
2018-08-03T08:26:30.269Z,37.17
2018-08-03T08:29:00.968Z,37.20
2018-08-03T08:31:31.720Z,36.09
2018-08-03T08:34:02.397Z,36.34
2018-08-03T08:36:33.072Z,35.78
2018-08-03T08:39:34.773Z,35.43
2018-08-03T08:42:05.514Z,34.96
2018-08-03T08:44:36.292Z,35.54
2018-08-03T08:47:07.102Z,34.77
2018-08-03T08:49:37.837Z,34.16
2018-08-03T08:52:08.710Z,34.40
2018-08-03T08:54:39.437Z,33.90
2018-08-03T08:57:10.065Z,32.61
2018-08-03T08:59:40.868Z,31.11
2018-08-03T09:02:11.496Z,31.84
2018-08-03T09:04:42.172Z,32.04
2018-08-03T09:07:12.816Z,31.47
2018-08-03T09:09:43.502Z,32.38
2018-08-03T09:12:14.180Z,31.66
2018-08-03T09:14:44.869Z,30.09
2018-08-03T09:17:15.564Z,30.19
2018-08-03T09:19:46.249Z,28.87
2018-08-03T09:22:16.928Z,31.31
2018-08-03T09:24:47.588Z,28.52
2018-08-03T09:27:18.248Z,29.15
2018-08-03T09:29:48.908Z,28.97
2018-08-03T09:32:19.598Z,28.73
2018-08-03T09:34:50.225Z,28.99
2018-08-03T09:37:20.860Z,28.30
2018-08-03T09:39:51.694Z,27.69
2018-08-03T09:42:22.362Z,27.34
2018-08-03T09:44:53.130Z,28.48
2018-08-03T09:47:23.839Z,26.75
2018-08-03T09:49:54.571Z,26.50
2018-08-03T09:52:25.261Z,27.61
2018-08-03T09:54:55.967Z,26.31
2018-08-03T09:57:26.622Z,25.63
2018-08-03T09:59:57.353Z,27.09
2018-08-03T10:02:28.045Z,27.09
2018-08-03T10:04:58.693Z,28.31
2018-08-03T10:07:29.421Z,26.72
2018-08-03T10:10:00.129Z,25.55
2018-08-03T10:12:30.799Z,26.22
2018-08-03T10:15:01.454Z,26.42
2018-08-03T10:17:32.140Z,25.60
2018-08-03T10:20:02.843Z,25.68
2018-08-03T10:22:33.589Z,24.34
2018-08-03T10:25:04.207Z,25.19
2018-08-03T10:27:34.877Z,24.53
2018-08-03T10:30:07.012Z,23.79
2018-08-03T10:32:38.596Z,25.50
2018-08-03T10:35:09.326Z,22.18
2018-08-03T10:37:40.015Z,22.68
2018-08-03T10:40:10.762Z,23.64
2018-08-03T10:42:41.462Z,23.25
2018-08-03T10:45:12.168Z,24.48
2018-08-03T10:47:42.863Z,22.99
2018-08-03T10:50:14.589Z,23.85
2018-08-03T10:52:45.804Z,23.80
2018-08-03T10:55:16.482Z,23.39
2018-08-03T10:57:47.153Z,23.73
2018-08-03T11:00:28.435Z,21.33
2018-08-03T11:02:59.576Z,21.26
2018-08-03T11:05:30.618Z,21.59
2018-08-03T11:08:01.259Z,20.97
2018-08-03T11:10:32.004Z,21.80
2018-08-03T11:13:02.710Z,23.02
2018-08-03T11:15:33.360Z,21.47
2018-08-03T11:18:04.047Z,21.59
2018-08-03T11:20:34.701Z,20.96
2018-08-03T11:23:05.436Z,20.83
2018-08-03T11:25:36.283Z,21.41
2018-08-03T11:28:07.027Z,20.57
2018-08-03T11:30:37.740Z,21.10
2018-08-03T11:33:08.395Z,22.37
2018-08-03T11:35:39.044Z,19.68
2018-08-03T11:38:09.672Z,21.37
2018-08-03T11:40:41.512Z,21.97
2018-08-03T11:43:12.167Z,22.75
2018-08-03T11:45:42.848Z,23.16
2018-08-03T11:48:13.494Z,22.15
2018-08-03T11:50:44.391Z,21.46
2018-08-03T11:53:15.052Z,22.96
2018-08-03T11:55:46.293Z,21.30
2018-08-03T11:58:16.892Z,21.42
2018-08-03T12:00:47.767Z,22.27
2018-08-03T12:03:18.379Z,20.59
2018-08-03T12:05:49.017Z,21.21
2018-08-03T12:08:19.632Z,22.25
2018-08-03T12:10:50.386Z,21.23
2018-08-03T12:13:21.076Z,19.24
2018-08-03T12:15:51.751Z,18.85
2018-08-03T12:18:22.617Z,18.35
2018-08-03T12:20:53.465Z,19.24
2018-08-03T12:23:24.187Z,17.94
2018-08-03T12:25:54.764Z,17.90
2018-08-03T12:28:25.475Z,16.95
2018-08-03T12:30:56.160Z,17.17
2018-08-03T12:33:26.824Z,17.71
2018-08-03T12:35:57.527Z,17.84
2018-08-03T12:38:28.182Z,18.77
2018-08-03T12:40:58.940Z,18.92
2018-08-03T12:43:30.076Z,19.48
2018-08-03T12:46:03.767Z,18.03
2018-08-03T12:48:34.515Z,17.52
2018-08-03T12:51:05.203Z,16.33
2018-08-03T12:53:36.366Z,16.79
2018-08-03T12:56:07.133Z,18.01
2018-08-03T12:58:37.812Z,18.22
2018-08-03T13:01:08.515Z,19.70
2018-08-03T13:03:39.172Z,18.55
2018-08-03T13:06:09.776Z,18.89
2018-08-03T13:08:40.478Z,17.69
2018-08-03T13:11:11.116Z,17.58
2018-08-03T13:13:41.803Z,17.26
2018-08-03T13:16:12.428Z,17.36
2018-08-03T13:18:43.104Z,17.59
2018-08-03T13:21:30.533Z,17.16
2018-08-03T13:24:02.046Z,16.71
2018-08-03T13:26:32.794Z,17.05
2018-08-03T13:29:03.616Z,17.06
2018-08-03T13:31:34.358Z,16.23
2018-08-03T13:34:05.090Z,17.20
2018-08-03T13:36:35.765Z,17.28
2018-08-03T13:39:09.330Z,16.42
2018-08-03T13:41:39.955Z,16.69
2018-08-03T13:44:10.672Z,16.04
2018-08-03T13:46:41.385Z,16.71
2018-08-03T13:49:12.008Z,15.90
2018-08-03T13:51:42.671Z,15.58
2018-08-03T13:54:13.352Z,16.21
2018-08-03T13:56:44.059Z,16.11
2018-08-03T13:59:14.696Z,15.74
2018-08-03T14:02:02.085Z,16.54
2018-08-03T14:04:32.728Z,15.65
2018-08-03T14:07:03.446Z,15.18
2018-08-03T14:09:34.074Z,15.01
2018-08-03T14:12:04.845Z,15.46
2018-08-03T14:14:35.506Z,15.61
2018-08-03T14:17:06.522Z,15.45
2018-08-03T14:19:37.155Z,16.65
2018-08-03T14:22:07.879Z,15.97
2018-08-03T14:24:38.506Z,16.08
2018-08-03T14:27:09.335Z,16.13
2018-08-03T14:29:39.991Z,16.28
2018-08-03T14:32:10.782Z,15.78
2018-08-03T14:34:41.442Z,15.34
2018-08-03T14:37:12.083Z,15.57
2018-08-03T14:39:42.720Z,15.93
2018-08-03T14:42:13.087Z,15.55
2018-08-03T14:44:43.584Z,14.84
2018-08-03T14:47:14.281Z,15.61
2018-08-03T14:49:44.900Z,15.40
2018-08-03T14:52:15.595Z,16.35
2018-08-03T14:54:46.275Z,15.79
2018-08-03T14:57:16.934Z,15.75
2018-08-03T14:59:47.574Z,15.85
2018-08-03T15:02:18.254Z,15.85
2018-08-03T15:04:48.918Z,16.48
2018-08-03T15:07:19.576Z,16.29
2018-08-03T15:09:50.206Z,16.72
2018-08-03T15:12:20.869Z,16.87
2018-08-03T15:14:51.538Z,16.23
2018-08-03T15:17:22.262Z,15.96
2018-08-03T15:19:52.951Z,16.03
2018-08-03T15:22:24.786Z,16.14
2018-08-03T15:24:55.714Z,16.63
2018-08-03T15:27:26.402Z,16.32
2018-08-03T15:29:57.072Z,16.01
2018-08-03T15:32:27.676Z,16.11
2018-08-03T15:34:58.237Z,16.79
2018-08-03T15:37:28.911Z,17.02
2018-08-03T15:39:59.553Z,17.10
2018-08-03T15:42:30.258Z,16.65
2018-08-03T15:45:00.938Z,16.61
2018-08-03T15:47:31.576Z,16.64
2018-08-03T15:50:02.277Z,17.22
2018-08-03T15:52:32.895Z,16.45
2018-08-03T15:55:03.672Z,17.33
2018-08-03T15:57:34.373Z,17.86
2018-08-03T16:00:06.932Z,19.24
2018-08-03T16:02:37.615Z,19.21
2018-08-03T16:05:09.325Z,18.65
2018-08-03T16:07:39.961Z,18.79
2018-08-03T16:10:10.696Z,19.04
2018-08-03T16:12:41.358Z,19.54
2018-08-03T16:15:12.052Z,18.95
2018-08-03T16:17:42.723Z,20.07
2018-08-03T16:20:13.415Z,19.48
2018-08-03T16:22:44.140Z,19.48
2018-08-03T16:25:14.924Z,19.61
2018-08-03T16:27:45.636Z,18.58
2018-08-03T16:30:16.321Z,19.20
2018-08-03T16:32:47.031Z,19.26
2018-08-03T16:35:17.988Z,20.03
2018-08-03T16:37:48.604Z,19.90
2018-08-03T16:40:19.295Z,20.11
2018-08-03T16:42:49.991Z,20.21
2018-08-03T16:45:20.661Z,19.67
2018-08-03T16:47:51.332Z,19.65
2018-08-03T16:50:22.009Z,19.88
2018-08-03T16:52:52.843Z,20.46
2018-08-03T16:55:23.516Z,20.34
2018-08-03T16:57:54.170Z,20.72
2018-08-03T17:00:24.564Z,20.69
2018-08-03T17:02:55.112Z,20.87
2018-08-03T17:05:25.818Z,20.90
2018-08-03T17:07:56.500Z,21.28
2018-08-03T17:10:27.160Z,21.02
2018-08-03T17:12:57.959Z,21.54
2018-08-03T17:15:28.626Z,21.48
2018-08-03T17:17:59.301Z,22.92
2018-08-03T17:20:29.930Z,22.80
2018-08-03T17:23:00.607Z,22.80
2018-08-03T17:25:31.248Z,22.91
2018-08-03T17:28:02.020Z,22.67
2018-08-03T17:30:32.666Z,22.62
2018-08-03T17:33:03.360Z,22.89
2018-08-03T17:35:34.010Z,23.37
2018-08-03T17:38:04.783Z,24.11
2018-08-03T17:40:35.451Z,24.29
2018-08-03T17:43:06.216Z,24.93
2018-08-03T17:45:36.922Z,25.75
2018-08-03T17:48:07.252Z,25.70
2018-08-03T17:50:37.939Z,25.73
2018-08-03T17:53:08.643Z,25.53
2018-08-03T17:55:39.285Z,26.26
2018-08-03T17:58:09.960Z,25.80
2018-08-03T18:00:40.589Z,26.22
2018-08-03T18:03:11.239Z,26.58
2018-08-03T18:05:41.907Z,26.39
2018-08-03T18:08:12.704Z,26.58
2018-08-03T18:10:43.436Z,27.08
2018-08-03T18:13:14.240Z,26.83
2018-08-03T18:15:44.960Z,27.33
2018-08-03T18:18:15.641Z,27.27
2018-08-03T18:20:46.288Z,27.36
2018-08-03T18:23:16.987Z,28.23
2018-08-03T18:25:47.697Z,27.70
2018-08-03T18:28:18.347Z,28.36
2018-08-03T18:30:49.077Z,28.21
2018-08-03T18:33:19.727Z,28.83
2018-08-03T18:35:50.437Z,29.17
2018-08-03T18:38:21.120Z,28.58
2018-08-03T18:40:51.837Z,29.14
2018-08-03T18:43:22.508Z,29.35
2018-08-03T18:45:53.197Z,29.57
2018-08-03T18:48:23.839Z,30.05
2018-08-03T18:50:54.642Z,29.67
2018-08-03T18:53:25.774Z,30.25
2018-08-03T18:55:56.401Z,30.70
2018-08-03T18:58:27.109Z,30.22
2018-08-03T19:00:57.830Z,31.27
2018-08-03T19:03:28.581Z,31.15
2018-08-03T19:05:59.302Z,31.07
2018-08-03T19:08:30.151Z,31.33
2018-08-03T19:11:01.007Z,31.52
2018-08-03T19:13:31.935Z,32.15
2018-08-03T19:16:02.572Z,32.09
2018-08-03T19:18:33.962Z,32.48
2018-08-03T19:21:04.761Z,32.09
2018-08-03T19:23:35.485Z,32.57
2018-08-03T19:26:06.264Z,33.04
2018-08-03T19:28:36.904Z,32.97
2018-08-03T19:31:07.613Z,32.94
2018-08-03T19:33:37.949Z,33.54
2018-08-03T19:36:08.546Z,32.95
2018-08-03T19:38:40.023Z,33.18
2018-08-03T19:41:10.895Z,33.81
2018-08-03T19:43:41.602Z,33.37
2018-08-03T19:46:12.335Z,33.72
2018-08-03T19:48:43.032Z,33.99
2018-08-03T19:51:13.716Z,34.73
2018-08-03T19:53:44.473Z,34.97
2018-08-03T19:56:15.204Z,34.65
2018-08-03T19:58:45.975Z,34.78
2018-08-03T20:01:16.616Z,34.76
2018-08-03T20:03:47.599Z,34.84
2018-08-03T20:06:18.015Z,35.58
2018-08-03T20:08:48.571Z,35.35
2018-08-03T20:11:19.282Z,35.30
2018-08-03T20:13:50.032Z,35.41
2018-08-03T20:16:21.062Z,35.85
2018-08-03T20:18:51.726Z,36.06
2018-08-03T20:21:22.367Z,36.08
2018-08-03T20:23:53.042Z,36.10
2018-08-03T20:26:23.730Z,36.38
2018-08-03T20:28:54.364Z,36.91
2018-08-03T20:31:25.040Z,37.03
2018-08-03T20:33:55.727Z,37.04
2018-08-03T20:36:26.503Z,37.38
2018-08-03T20:38:57.191Z,37.58
2018-08-03T20:41:28.001Z,37.81
2018-08-03T20:43:58.779Z,37.57
2018-08-03T20:46:29.424Z,37.47
2018-08-03T20:49:00.098Z,37.73
2018-08-03T20:51:30.936Z,38.18
2018-08-03T20:54:01.678Z,38.79
2018-08-03T20:56:32.336Z,38.74
2018-08-03T20:59:03.091Z,38.42
2018-08-03T21:01:33.745Z,38.11
2018-08-03T21:04:04.448Z,37.95
2018-08-03T21:06:35.078Z,38.41
2018-08-03T21:09:10.219Z,38.04
2018-08-03T21:11:40.982Z,38.37
2018-08-03T21:14:11.725Z,38.14
2018-08-03T21:16:42.500Z,38.42
2018-08-03T21:19:13.146Z,38.39
2018-08-03T21:21:43.808Z,38.39
2018-08-03T21:24:14.470Z,38.99
2018-08-03T21:26:45.135Z,38.64
2018-08-03T21:29:15.791Z,38.99
2018-08-03T21:31:46.476Z,39.25
2018-08-03T21:34:17.180Z,39.56
2018-08-03T21:36:47.849Z,39.53
2018-08-03T21:39:18.499Z,39.86
2018-08-03T21:41:49.169Z,39.82
2018-08-03T21:44:20.240Z,40.16
2018-08-03T21:46:50.883Z,40.51
2018-08-03T21:49:21.581Z,40.59
2018-08-03T21:51:52.206Z,40.54
2018-08-03T21:54:22.858Z,40.88
2018-08-03T21:56:53.503Z,41.12
2018-08-03T21:59:24.156Z,41.47
2018-08-03T22:01:54.839Z,41.02
2018-08-03T22:04:25.462Z,41.21
2018-08-03T22:06:56.150Z,41.55
2018-08-03T22:09:26.776Z,42.16
2018-08-03T22:11:57.493Z,42.30
2018-08-03T22:14:28.170Z,42.55
2018-08-03T22:16:58.887Z,42.75
2018-08-03T22:19:29.619Z,42.46
2018-08-03T22:22:00.372Z,43.12
2018-08-03T22:24:31.001Z,43.30
2018-08-03T22:27:01.782Z,43.46
2018-08-03T22:29:32.385Z,43.58
2018-08-03T22:32:03.064Z,43.84
2018-08-03T22:34:33.697Z,43.62
2018-08-03T22:37:04.376Z,44.33
2018-08-03T22:39:35.033Z,43.92
2018-08-03T22:42:05.759Z,44.16
2018-08-03T22:44:36.435Z,44.51
2018-08-03T22:47:07.168Z,44.46
2018-08-03T22:49:37.831Z,44.81
2018-08-03T22:52:08.558Z,45.07
2018-08-03T22:54:39.189Z,44.83
2018-08-03T22:57:09.861Z,45.75
2018-08-03T22:59:40.511Z,45.31
2018-08-03T23:02:11.222Z,45.75
2018-08-03T23:04:41.886Z,45.45
2018-08-03T23:07:12.540Z,45.42
2018-08-03T23:09:43.270Z,46.10
2018-08-03T23:12:13.943Z,46.06
2018-08-03T23:14:44.673Z,46.04
2018-08-03T23:17:15.289Z,45.62
2018-08-03T23:19:45.970Z,46.02
2018-08-03T23:22:16.593Z,46.00
2018-08-03T23:24:47.305Z,46.60
2018-08-03T23:27:17.952Z,46.11
2018-08-03T23:29:48.674Z,46.34
2018-08-03T23:32:19.340Z,46.37
2018-08-03T23:34:50.079Z,46.27
2018-08-03T23:37:20.739Z,46.47
2018-08-03T23:39:51.524Z,46.16
2018-08-03T23:42:22.219Z,46.54
2018-08-03T23:44:52.920Z,46.46
2018-08-03T23:47:23.629Z,46.59
2018-08-03T23:49:54.330Z,45.93
2018-08-03T23:52:25.037Z,46.23
2018-08-03T23:54:55.822Z,46.19
2018-08-03T23:57:26.552Z,45.37
2018-08-03T23:59:57.291Z,45.68
